EKHE weather

Annisse flyveplads
Annisse, Zealand, Denmark

Public forecast

Using degrees Celsius for public forecast. Weather courtesy of forecast.io.

METAR (pilot weather report)

Closest report is Copenhagen Roskilde Airport, 24.1 nm (44.7 km) S. Retrieved 2019/09/23 06:20 UTC (31 minutes ago):

EKRK 230620Z AUTO 10012KT 9999 OVC015/// 13/10 Q1017

TAF (pilot weather forecast)

Closest forecast is Copenhagen Kastrup Airport, 26.6 nm (49.2 km) SE. Retrieved 2019/09/23 06:30 UTC (21 minutes ago):

TAF EKCH 230506Z 2306/2406 10016KT 9999 BKN018